Date,TemperatureHighF,TemperatureAvgF,TemperatureLowF,DewpointHighF,DewpointAvgF,DewpointLowF,HumidityHigh,HumidityAvg,HumidityLow,PressureMaxIn,PressureMinIn,WindSpeedMaxMPH,WindSpeedAvgMPH,GustSpeedMaxMPH,PrecipitationSumIn
2013-6-12,90,80,71,75,70,64,100,75,44,0.00,40.00,0,-999,0,0.00
2013-6-13,91,78,71,75,70,62,100,78,42,0.00,40.00,0,-999,0,0.00
2013-6-14,86,77,70,75,72,67,100,85,56,0.00,40.00,0,-999,0,0.00
2013-6-15,86,79,74,76,72,66,100,81,53,0.00,40.00,0,-999,0,0.00
2013-6-16,91,81,71,74,68,60,100,68,40,0.00,40.00,0,-999,0,0.00
2013-6-17,92,82,72,75,69,63,100,69,39,0.00,40.00,0,-999,0,0.00
2013-6-18,85,75,66,74,69,63,100,83,54,0.00,40.00,0,-999,0,0.98
2013-6-19,91,81,71,75,69,64,100,71,41,0.00,40.00,0,-999,0,0.02
2013-6-20,90,78,70,73,69,61,100,78,39,0.00,40.00,0,-999,0,0.00
2013-6-22,86,83,77,69,66,62,76,57,44,0.00,40.00,0,-999,0,0.00
2013-6-25,93,89,81,68,61,58,64,40,31,0.00,40.00,0,-999,0,0.00
2013-6-26,95,82,73,73,68,59,96,65,31,0.00,40.00,0,-999,0,0.00
2013-6-30,89,81,67,71,61,54,100,54,34,0.00,40.00,0,-999,0,0.11
2013-7-1,84,78,70,61,49,-100,56,40,25,0.00,40.00,0,-999,0,0.01
2013-7-2,88,76,64,54,46,33,67,38,15,0.00,40.00,0,-999,0,0.00
2013-7-3,90,79,63,53,43,38,61,31,16,0.00,40.00,0,-999,0,0.00
2013-7-4,90,78,67,65,50,-100,88,46,21,0.00,40.00,0,-999,0,0.00
2013-7-5,93,82,68,65,54,45,86,43,20,0.00,40.00,0,-999,0,0.00
2013-7-6,93,81,71,68,62,53,85,55,27,0.00,40.00,0,-999,0,0.00
2013-7-7,94,82,71,75,66,56,100,65,29,0.00,40.00,0,-999,0,0.00
2013-7-8,85,77,73,75,72,63,100,85,52,0.00,40.00,0,-999,0,0.09
2013-7-13,99,87,74,66,58,52,75,42,22,0.00,40.00,0,-999,0,0.00
2013-7-14,90,80,67,69,62,57,100,56,36,0.00,40.00,0,-999,0,0.00
2013-7-15,71,67,63,71,67,63,100,100,100,0.00,40.00,0,-999,0,5.31
2013-7-16,83,74,68,75,70,67,100,91,59,0.00,40.00,0,-999,0,0.11
2013-7-17,83,72,68,75,70,68,100,95,61,0.00,40.00,0,-999,0,0.78
2013-7-18,87,76,68,75,69,63,100,81,46,0.00,40.00,0,-999,0,0.02
2013-7-19,89,79,69,74,66,58,100,71,36,0.00,40.00,0,-999,0,0.00
2013-7-20,90,78,69,73,69,61,100,76,39,0.00,40.00,0,-999,0,0.00
2013-7-21,90,77,71,76,71,66,100,86,47,0.00,40.00,0,-999,0,0.32
2013-7-22,91,81,73,77,72,65,100,78,43,0.00,40.00,0,-999,0,0.09
2013-7-23,92,82,75,77,70,61,100,71,36,0.00,40.00,0,-999,0,0.00
2013-7-24,90,81,72,76,72,66,100,76,46,0.00,40.00,0,-999,0,0.00
2013-7-25,92,82,72,74,68,63,100,65,39,0.00,40.00,0,-999,0,0.00
2013-7-26,95,83,73,75,68,63,95,65,37,0.00,40.00,0,-999,0,0.03
2013-7-27,86,78,72,75,70,62,100,80,47,0.00,40.00,0,-999,0,0.01
2013-7-28,90,78,69,75,70,64,100,78,41,0.00,40.00,0,-999,0,0.00
2013-7-29,93,83,74,76,68,58,100,65,31,0.00,40.00,0,-999,0,0.00
2013-7-30,93,82,72,74,68,58,100,68,32,0.00,40.00,0,-999,0,0.00
2013-7-31,97,84,72,72,64,57,100,57,27,0.00,40.00,0,-999,0,0.00
2013-8-1,96,86,75,69,64,59,81,50,30,0.00,40.00,0,-999,0,0.00
2013-8-2,95,85,75,66,61,53,69,47,25,0.00,40.00,0,-999,0,0.00
2013-8-3,94,84,72,73,65,58,100,59,31,0.00,40.00,0,-999,0,0.00
2013-8-4,93,83,73,75,69,62,100,65,38,0.00,40.00,0,-999,0,0.00
2013-8-5,96,83,72,71,66,58,92,59,29,0.00,40.00,0,-999,0,0.00
2013-8-6,97,85,72,73,67,58,98,60,28,0.00,40.00,0,-999,0,0.00
2013-8-7,98,85,72,74,67,53,100,60,27,0.00,40.00,0,-999,0,0.00
2013-8-8,98,85,72,74,62,-100,100,56,20,0.00,40.00,0,-999,0,0.00
2013-8-9,97,84,71,74,59,-100,100,53,18,0.00,40.00,0,-999,0,0.00
2013-8-10,98,86,72,71,65,50,95,54,28,0.00,40.00,0,-999,0,0.00
2013-8-11,93,82,73,73,68,62,97,66,36,0.00,40.00,0,-999,0,0.00
2013-8-12,93,81,71,74,67,60,100,69,34,0.00,40.00,0,-999,0,0.00
2013-8-13,97,85,74,71,63,55,85,52,25,0.00,40.00,0,-999,0,0.00
2013-8-14,95,80,74,73,68,60,97,67,38,0.00,40.00,0,-999,0,0.00
2013-8-15,87,75,70,73,68,-100,100,90,54,0.00,40.00,0,-999,0,1.68
2013-8-16,87,75,68,73,68,62,100,81,45,0.00,40.00,0,-999,0,1.69
2013-8-17,88,77,67,69,63,55,100,66,33,0.00,40.00,0,-999,0,0.00
2013-8-18,89,80,69,60,56,54,65,46,31,0.00,40.00,0,-999,0,0.00
2013-8-19,90,79,69,65,56,-100,80,51,32,0.00,40.00,0,-999,0,0.00
2013-8-20,90,80,67,66,60,53,92,55,29,0.00,40.00,0,-999,0,0.00
2013-8-21,90,78,69,73,68,62,100,74,39,0.00,40.00,0,-999,0,0.00
2013-8-22,91,81,71,75,68,61,100,68,38,0.00,40.00,0,-999,0,0.00
2013-8-23,93,82,72,73,66,59,100,64,34,0.00,40.00,0,-999,0,0.00
2013-8-24,94,83,75,70,65,58,79,56,31,0.00,40.00,0,-999,0,0.00
2013-8-25,91,82,72,72,67,62,100,62,39,0.00,40.00,0,-999,0,0.00
2013-8-26,87,78,71,73,69,63,100,78,46,0.00,40.00,0,-999,0,0.00
2013-8-27,77,72,70,75,72,70,100,100,94,0.00,40.00,0,-999,0,0.24
2013-8-28,90,85,78,70,65,61,70,52,38,0.00,40.00,0,-999,0,0.01
2013-9-1,97,84,73,70,64,60,84,54,31,0.00,40.00,0,-999,0,0.00
2013-9-2,93,82,74,70,66,59,87,61,33,0.00,40.00,0,-999,0,0.00
2013-9-3,93,81,70,72,64,-100,97,63,36,0.00,40.00,0,-999,0,0.06
2013-9-4,94,82,74,72,66,58,92,61,33,0.00,40.00,0,-999,0,0.01
2013-9-5,94,82,72,71,66,60,91,61,34,0.00,40.00,0,-999,0,0.01
2013-9-6,93,82,72,73,66,57,100,61,33,0.00,40.00,0,-999,0,0.00
2013-9-7,93,80,71,74,68,58,100,72,32,0.00,40.00,0,-999,0,0.00
2013-9-8,89,77,69,73,68,62,100,78,41,0.00,40.00,0,-999,0,0.00
2013-9-9,89,76,68,73,68,61,100,80,39,0.00,40.00,0,-999,0,0.00
2013-9-10,87,76,69,72,69,63,100,81,45,0.00,40.00,0,-999,0,0.01
2013-9-11,89,79,71,74,66,57,100,72,35,0.00,40.00,0,-999,0,0.01
2013-9-12,91,79,68,73,64,54,100,65,30,0.00,40.00,0,-999,0,0.00
2013-9-13,92,81,71,69,61,52,90,54,27,0.00,40.00,0,-999,0,0.00
2013-9-14,92,82,70,70,61,55,78,51,32,0.00,40.00,0,-999,0,0.00
2013-9-15,88,80,71,74,67,61,100,68,43,0.00,40.00,0,-999,0,0.00
2013-9-16,88,76,69,74,69,64,100,81,45,0.00,40.00,0,-999,0,0.70
2013-9-17,85,74,70,75,71,66,100,90,53,0.00,40.00,0,-999,0,0.71
2013-9-20,74,70,65,74,70,65,100,100,100,0.00,40.00,0,-999,0,1.93
2013-9-21,79,70,62,67,57,45,100,71,32,0.00,40.00,0,-999,0,0.01
2013-9-22,79,69,54,52,47,40,88,48,26,0.00,40.00,0,-999,0,0.00
2013-9-23,84,72,59,52,48,44,71,44,25,0.00,40.00,0,-999,0,0.00
2013-9-24,89,78,62,57,54,49,73,45,31,0.00,40.00,0,-999,0,0.00
2013-9-25,90,78,67,60,58,55,73,51,33,0.00,40.00,0,-999,0,0.00
2013-9-26,86,78,70,70,55,49,84,48,30,0.00,40.00,0,-999,0,0.00
2013-9-27,84,75,71,76,73,71,100,95,73,0.00,40.00,0,-999,0,0.27
2013-9-28,83,76,66,77,74,66,100,93,75,0.00,40.00,0,-999,0,0.18
2013-9-29,73,64,59,66,61,57,100,90,58,0.00,40.00,0,-999,0,1.07
2013-9-30,83,68,57,64,57,51,100,72,36,0.00,40.00,0,-999,0,0.02
2013-10-1,83,77,72,72,68,64,100,73,53,0.00,40.00,0,-999,0,0.00
2013-10-2,86,77,71,75,70,63,100,83,50,0.00,40.00,0,-999,0,0.00
2013-10-3,86,78,70,74,70,64,100,79,49,0.00,40.00,0,-999,0,0.00
2013-10-4,86,76,70,72,68,64,100,79,49,0.00,40.00,0,-999,0,0.00
2013-10-5,79,69,57,73,62,36,100,78,44,0.00,40.00,0,-999,0,0.00
2013-10-6,75,62,49,53,35,-100,100,55,18,0.00,40.00,0,-999,0,0.08
2013-10-10,80,69,60,67,62,57,100,79,51,0.00,40.00,0,-999,0,0.00
2013-10-11,83,74,68,75,69,66,100,86,58,0.00,40.00,0,-999,0,0.00
2013-10-12,87,77,71,76,72,67,100,85,52,0.00,40.00,0,-999,0,0.00
2013-10-13,72,68,62,72,68,62,100,100,97,0.00,40.00,0,-999,0,1.31
2013-10-14,77,71,68,75,70,68,100,99,84,0.00,40.00,0,-999,0,0.05
2013-10-15,76,67,52,72,66,52,100,97,80,0.00,40.00,0,-999,0,0.01
2013-10-16,60,53,49,57,52,49,100,98,88,0.00,40.00,0,-999,0,1.24
2013-10-17,69,58,46,53,46,40,98,68,38,0.00,40.00,0,-999,0,0.01
2013-10-18,66,60,55,63,57,49,100,91,78,0.00,40.00,0,-999,0,0.03
2013-10-19,63,51,41,51,40,33,100,72,36,0.00,40.00,0,-999,0,0.03
2013-10-20,70,57,47,49,43,38,76,61,41,0.00,40.00,0,-999,0,0.00
2013-10-21,73,63,56,65,58,47,100,85,67,0.00,40.00,0,-999,0,0.00
2013-10-22,72,58,46,54,40,-100,99,62,26,0.00,40.00,0,-999,0,0.00
2013-10-23,78,63,50,46,38,-100,78,48,22,0.00,40.00,0,-999,0,0.00
2013-10-24,77,66,52,46,42,38,63,42,27,0.00,40.00,0,-999,0,0.00
2013-10-25,73,63,54,59,54,46,99,73,55,0.00,40.00,0,-999,0,0.00
2013-10-26,75,66,60,65,62,60,100,88,61,0.00,40.00,0,-999,0,0.01
2013-10-27,67,62,58,64,61,58,100,97,80,0.00,40.00,0,-999,0,0.26
2013-10-28,77,70,61,69,66,61,100,89,70,0.00,40.00,0,-999,0,0.00
2013-10-29,78,72,67,71,68,66,100,89,66,0.00,40.00,0,-999,0,0.01
2013-10-30,77,72,68,73,70,68,100,97,81,0.00,40.00,0,-999,0,0.07
2013-10-31,74,67,54,70,42,-100,100,62,19,0.00,40.00,0,-999,0,0.03
2013-11-1,77,67,49,46,36,31,74,34,19,0.00,40.00,0,-999,0,0.00
2013-11-2,68,58,49,41,34,26,66,44,21,0.00,40.00,0,-999,0,0.00
2013-11-3,63,55,43,50,37,32,76,54,33,0.00,40.00,0,-999,0,0.00
2013-11-4,60,58,56,60,56,51,100,96,77,0.00,40.00,0,-999,0,0.09
2013-11-5,73,66,60,70,65,60,100,96,77,0.00,40.00,0,-999,0,0.01
2013-11-6,68,56,47,68,51,36,100,86,51,0.00,40.00,0,-999,0,0.20
2013-11-7,62,49,39,39,34,25,82,58,31,0.00,40.00,0,-999,0,0.01
2013-11-8,60,52,45,43,36,31,82,56,35,0.00,40.00,0,-999,0,0.00
2013-11-9,63,57,51,58,51,42,100,80,68,0.00,40.00,0,-999,0,0.00
2013-11-10,66,59,54,58,56,51,100,91,71,0.00,40.00,0,-999,0,0.00
2013-11-11,73,60,49,54,50,46,99,74,47,0.00,40.00,0,-999,0,0.00
2013-11-12,58,49,35,54,42,20,100,77,47,0.00,40.00,0,-999,0,0.00
2013-11-13,51,39,28,24,21,17,68,49,30,0.00,40.00,0,-999,0,0.00
2013-11-14,58,46,34,42,29,21,70,53,26,0.00,40.00,0,-999,0,0.00
2013-11-15,57,51,48,55,49,42,100,92,72,0.00,40.00,0,-999,0,0.00
2013-11-16,73,68,61,70,65,61,100,90,74,0.00,40.00,0,-999,0,0.00
2013-11-17,83,72,63,70,59,40,100,70,25,0.00,40.00,0,-999,0,0.00
2013-11-18,71,63,57,52,44,38,64,50,40,0.00,40.00,0,-999,0,0.00
2013-11-19,68,59,50,49,41,37,74,53,34,0.00,40.00,0,-999,0,0.00
2013-11-20,67,59,54,63,56,48,100,89,76,0.00,40.00,0,-999,0,0.00
2013-11-24,36,33,30,36,31,26,100,92,72,0.00,40.00,0,-999,0,0.06
2013-11-25,35,34,31,35,34,31,100,99,92,0.00,40.00,0,-999,0,0.46
2013-11-26,48,38,32,34,29,22,100,75,41,0.00,40.00,0,-999,0,0.04
2013-11-27,47,36,27,27,21,13,85,56,26,0.00,40.00,0,-999,0,0.00
2013-11-28,51,40,32,26,23,20,68,52,33,0.00,40.00,0,-999,0,0.00
2013-11-29,56,46,34,49,41,24,100,85,61,0.00,40.00,0,-999,0,0.00
2013-11-30,61,53,47,57,51,45,100,93,79,0.00,40.00,0,-999,0,0.00
2013-12-1,66,57,52,59,56,52,100,95,74,0.00,40.00,0,-999,0,0.00
2013-12-2,62,61,59,36,35,35,41,39,37,0.00,40.00,0,-999,0,0.00
2013-12-3,82,62,45,44,28,-100,94,47,16,0.00,40.00,0,-999,0,0.00
2013-12-4,77,67,59,64,59,41,100,77,50,0.00,40.00,0,-999,0,0.00
2013-12-5,61,39,25,61,34,20,100,83,60,0.00,40.00,0,-999,0,0.00
2013-12-6,28,26,22,28,26,19,100,98,88,0.00,40.00,0,-999,0,0.00
2013-12-7,24,21,19,22,18,15,96,89,85,0.00,40.00,0,-999,0,0.00
2013-12-8,44,30,22,39,29,21,100,96,77,0.00,40.00,0,-999,0,0.02
2013-12-9,34,31,27,34,31,27,100,100,100,0.00,40.00,0,-999,0,0.03
2013-12-10,42,30,21,27,21,16,100,72,36,0.00,40.00,0,-999,0,0.02
2013-12-11,52,38,28,26,23,19,80,59,35,0.00,40.00,0,-999,0,0.00
2013-12-12,49,43,39,32,30,28,75,61,46,0.00,40.00,0,-999,0,0.00
2013-12-13,41,40,38,40,35,32,100,82,74,0.00,40.00,0,-999,0,0.00
2013-12-14,46,40,36,42,35,26,100,83,55,0.00,40.00,0,-999,0,0.02
2013-12-15,57,42,31,31,27,24,93,60,29,0.00,40.00,0,-999,0,0.00
2013-12-16,66,52,37,31,29,26,68,45,25,0.00,40.00,0,-999,0,0.00
2013-12-21,63,48,36,53,37,-100,100,78,34,0.00,40.00,0,-999,0,0.95
2013-12-22,50,41,33,38,31,25,100,68,49,0.00,40.00,0,-999,0,0.02
2013-12-23,52,38,26,28,25,18,97,64,27,0.00,40.00,0,-999,0,0.00
2013-12-24,55,43,33,30,26,22,85,56,30,0.00,40.00,0,-999,0,0.00
2013-12-25,55,45,38,47,40,32,100,84,64,0.00,40.00,0,-999,0,0.00
2013-12-26,51,40,31,38,34,31,100,82,51,0.00,40.00,0,-999,0,0.00
2013-12-27,54,46,41,41,36,26,93,70,37,0.00,40.00,0,-999,0,0.00
2013-12-28,59,48,40,46,42,38,100,81,51,0.00,40.00,0,-999,0,0.00
2013-12-29,52,43,27,48,42,27,100,95,81,0.00,40.00,0,-999,0,0.00
2013-12-30,43,33,26,27,23,18,99,68,41,0.00,40.00,0,-999,0,0.00
2013-12-31,52,40,29,29,27,24,89,60,33,0.00,40.00,0,-999,0,0.00
2014-1-1,66,49,35,51,40,27,100,72,54,0.00,40.00,0,-999,0,0.00
2014-1-2,48,37,27,32,20,-100,81,56,32,0.00,40.00,0,-999,0,0.00